createdAt,value
2019-03-13T00:02:00.530Z,1.60
2019-03-13T00:04:28.584Z,1.60
2019-03-13T00:07:02.798Z,1.50
2019-03-13T00:09:30.512Z,1.40
2019-03-13T00:11:58.589Z,1.90
2019-03-13T00:14:27.071Z,1.60
2019-03-13T00:16:55.801Z,1.60
2019-03-13T00:19:23.862Z,1.60
2019-03-13T00:21:51.884Z,1.80
2019-03-13T00:24:20.031Z,1.50
2019-03-13T00:26:49.931Z,1.50
2019-03-13T00:29:18.420Z,1.72
2019-03-13T00:31:46.698Z,1.60
2019-03-13T00:34:14.735Z,1.90
2019-03-13T00:36:43.895Z,1.70
2019-03-13T00:39:18.014Z,1.80
2019-03-13T00:41:46.104Z,1.50
2019-03-13T00:44:14.548Z,1.70
2019-03-13T00:46:43.208Z,1.70
2019-03-13T00:49:11.763Z,1.90
2019-03-13T00:51:40.285Z,1.50
2019-03-13T00:54:08.760Z,1.70
2019-03-13T00:56:37.590Z,1.60
2019-03-13T00:59:05.797Z,1.90
2019-03-13T01:01:53.725Z,1.60
2019-03-13T01:04:37.308Z,1.40
2019-03-13T01:07:11.871Z,1.60
2019-03-13T01:09:40.848Z,1.60
2019-03-13T01:12:09.056Z,1.50
2019-03-13T01:14:37.416Z,1.55
2019-03-13T01:17:06.645Z,1.52
2019-03-13T01:19:34.862Z,1.57
2019-03-13T01:22:04.334Z,1.60
2019-03-13T01:24:32.731Z,1.50
2019-03-13T01:27:00.878Z,1.60
2019-03-13T01:29:29.221Z,1.50
2019-03-13T01:32:22.437Z,1.22
2019-03-13T01:35:03.533Z,1.60
2019-03-13T01:37:32.462Z,1.70
2019-03-13T01:40:00.480Z,1.60
2019-03-13T01:42:28.604Z,1.77
2019-03-13T01:44:58.043Z,1.10
2019-03-13T01:47:26.706Z,0.80
2019-03-13T01:49:55.240Z,0.70
2019-03-13T01:52:23.344Z,0.70
2019-03-13T01:54:53.314Z,0.60
2019-03-13T01:57:22.198Z,0.60
2019-03-13T01:59:50.802Z,0.60
2019-03-13T02:02:19.492Z,0.70
2019-03-13T02:04:47.552Z,0.60
2019-03-13T02:07:15.772Z,0.70
2019-03-13T02:09:43.948Z,0.70
2019-03-13T02:12:12.532Z,0.88
2019-03-13T02:14:41.116Z,0.70
2019-03-13T02:17:09.218Z,0.70
2019-03-13T02:19:39.027Z,1.10
2019-03-13T02:22:07.335Z,0.80
2019-03-13T02:24:35.455Z,0.95
2019-03-13T02:27:03.965Z,1.30
2019-03-13T02:29:32.277Z,1.72
2019-03-13T02:32:00.740Z,2.80
2019-03-13T02:34:29.653Z,7.87
2019-03-13T02:36:58.137Z,10.15
2019-03-13T02:39:26.166Z,8.20
2019-03-13T02:41:55.180Z,7.00
2019-03-13T02:44:23.606Z,3.80
2019-03-13T02:46:51.772Z,2.70
2019-03-13T02:49:20.513Z,2.37
2019-03-13T02:51:48.741Z,2.10
2019-03-13T02:54:17.804Z,2.22
2019-03-13T02:56:46.130Z,2.20
2019-03-13T02:59:14.625Z,2.12
2019-03-13T03:02:01.723Z,2.00
2019-03-13T03:04:30.382Z,2.00
2019-03-13T03:06:58.452Z,2.02
2019-03-13T03:09:27.328Z,2.10
2019-03-13T03:11:55.706Z,2.00
2019-03-13T03:14:24.263Z,1.60
2019-03-13T03:16:52.595Z,1.60
2019-03-13T03:19:21.261Z,1.80
2019-03-13T03:21:49.585Z,1.72
2019-03-13T03:24:17.654Z,2.10
2019-03-13T03:26:46.740Z,1.80
2019-03-13T03:29:15.694Z,1.60
2019-03-13T03:31:44.414Z,2.00
2019-03-13T03:34:12.704Z,1.82
2019-03-13T03:36:40.796Z,1.80
2019-03-13T03:39:09.221Z,1.90
2019-03-13T03:41:37.333Z,1.90
2019-03-13T03:44:05.488Z,1.90
2019-03-13T03:46:34.257Z,2.08
2019-03-13T03:49:02.405Z,2.00
2019-03-13T03:51:31.331Z,1.70
2019-03-13T03:53:59.461Z,1.80
2019-03-13T03:56:27.934Z,1.97
2019-03-13T03:58:56.353Z,1.90
2019-03-13T04:01:24.589Z,1.80
2019-03-13T04:03:53.073Z,2.20
2019-03-13T04:06:21.594Z,2.10
2019-03-13T04:08:49.632Z,2.00
2019-03-13T04:11:17.939Z,2.37
2019-03-13T04:13:45.956Z,2.20
2019-03-13T04:16:14.026Z,2.50
2019-03-13T04:18:42.078Z,2.20
2019-03-13T04:21:10.116Z,2.22
2019-03-13T04:23:38.165Z,2.08
2019-03-13T04:26:06.667Z,1.90
2019-03-13T04:28:35.068Z,1.98
2019-03-13T04:31:03.122Z,1.80
2019-03-13T04:33:31.168Z,1.80
2019-03-13T04:35:59.221Z,1.80
2019-03-13T04:38:27.563Z,2.00
2019-03-13T04:40:55.873Z,1.60
2019-03-13T04:43:24.653Z,1.87
2019-03-13T04:45:52.694Z,1.50
2019-03-13T04:48:21.213Z,2.30
2019-03-13T04:50:49.998Z,2.40
2019-03-13T04:53:18.339Z,2.08
2019-03-13T04:55:47.175Z,1.70
2019-03-13T04:58:15.514Z,1.80
2019-03-13T05:00:44.673Z,2.20
2019-03-13T05:03:13.195Z,1.80
2019-03-13T05:05:42.313Z,2.00
2019-03-13T05:08:12.093Z,1.87
2019-03-13T05:10:40.419Z,1.72
2019-03-13T05:13:08.555Z,1.80
2019-03-13T05:15:37.177Z,2.00
2019-03-13T05:18:08.005Z,1.80
2019-03-13T05:20:36.420Z,2.10
2019-03-13T05:23:04.731Z,2.00
2019-03-13T05:25:32.773Z,2.40
2019-03-13T05:28:01.225Z,2.20
2019-03-13T05:30:29.337Z,2.30
2019-03-13T05:32:57.645Z,2.10
2019-03-13T05:35:25.675Z,2.35
2019-03-13T05:37:54.106Z,2.60
2019-03-13T05:40:22.469Z,2.55
2019-03-13T05:42:50.740Z,2.70
2019-03-13T05:45:19.093Z,2.45
2019-03-13T05:47:47.159Z,2.55
2019-03-13T05:50:15.276Z,2.35
2019-03-13T05:52:43.750Z,2.20
2019-03-13T05:55:11.772Z,2.55
2019-03-13T05:57:40.285Z,2.30
2019-03-13T06:00:08.448Z,2.40
2019-03-13T06:02:36.859Z,2.50
2019-03-13T06:05:05.341Z,2.10
2019-03-13T06:07:33.723Z,2.58
2019-03-13T06:10:01.787Z,2.40
2019-03-13T06:12:30.158Z,2.52
2019-03-13T06:14:58.547Z,2.30
2019-03-13T06:17:26.753Z,2.20
2019-03-13T06:19:55.099Z,2.40
2019-03-13T06:22:23.912Z,2.40
2019-03-13T06:24:52.273Z,2.50
2019-03-13T06:27:20.300Z,2.75
2019-03-13T06:29:48.372Z,2.50
2019-03-13T06:32:16.431Z,2.60
2019-03-13T06:34:44.456Z,2.80
2019-03-13T06:37:13.144Z,2.60
2019-03-13T06:39:41.444Z,2.70
2019-03-13T06:42:10.088Z,2.50
2019-03-13T06:44:39.195Z,2.80
2019-03-13T06:47:07.695Z,2.90
2019-03-13T06:49:35.916Z,3.22
2019-03-13T06:52:04.348Z,3.50
2019-03-13T06:54:32.398Z,2.72
2019-03-13T06:57:00.827Z,2.87
2019-03-13T06:59:37.064Z,3.20
2019-03-13T07:02:24.688Z,2.80
2019-03-13T07:05:03.839Z,3.30
2019-03-13T07:07:51.452Z,3.30
2019-03-13T07:10:56.963Z,3.47
2019-03-13T07:13:32.304Z,3.40
2019-03-13T07:16:25.734Z,3.22
2019-03-13T07:19:06.086Z,3.20
2019-03-13T07:21:52.063Z,3.20
2019-03-13T07:24:34.385Z,2.85
2019-03-13T07:27:10.161Z,3.60
2019-03-13T07:29:49.951Z,3.12
2019-03-13T07:32:52.623Z,3.10
2019-03-13T07:35:48.456Z,3.07
2019-03-13T07:38:34.957Z,2.85
2019-03-13T07:41:20.881Z,3.20
2019-03-13T07:44:06.800Z,3.37
2019-03-13T07:47:05.953Z,3.30
2019-03-13T07:49:51.831Z,3.42
2019-03-13T07:52:46.644Z,3.02
2019-03-13T07:55:22.861Z,3.10
2019-03-13T07:58:06.309Z,3.27
2019-03-13T08:00:56.531Z,3.20
2019-03-13T08:03:41.272Z,3.40
2019-03-13T08:06:27.231Z,2.70
2019-03-13T08:09:13.285Z,3.20
2019-03-13T08:11:55.240Z,3.27
2019-03-13T08:14:31.627Z,2.90
2019-03-13T08:17:18.887Z,3.45
2019-03-13T08:19:58.148Z,2.85
2019-03-13T08:22:46.003Z,3.27
2019-03-13T08:25:33.204Z,3.20
2019-03-13T08:28:17.852Z,3.15
2019-03-13T08:30:53.831Z,3.40
2019-03-13T08:33:30.172Z,3.70
2019-03-13T08:36:13.689Z,3.05
2019-03-13T08:38:55.180Z,2.98
2019-03-13T08:41:43.928Z,2.85
2019-03-13T08:44:40.274Z,3.08
2019-03-13T08:47:45.608Z,3.08
2019-03-13T08:50:32.616Z,3.20
2019-03-13T08:53:14.387Z,2.70
2019-03-13T08:55:52.697Z,2.80
2019-03-13T08:58:31.301Z,2.92
2019-03-13T09:01:33.670Z,3.22
2019-03-13T09:04:08.329Z,2.87
2019-03-13T09:06:44.648Z,3.23
2019-03-13T09:09:31.697Z,3.02
2019-03-13T09:12:11.688Z,2.70
2019-03-13T09:15:17.790Z,3.15
2019-03-13T09:18:04.928Z,2.87
2019-03-13T09:20:54.680Z,3.50
2019-03-13T09:23:47.849Z,3.58
2019-03-13T09:26:53.193Z,3.22
2019-03-13T09:29:49.485Z,3.08
2019-03-13T09:32:31.980Z,2.67
2019-03-13T09:35:09.835Z,3.42
2019-03-13T09:37:56.755Z,3.10
2019-03-13T09:40:33.915Z,3.40
2019-03-13T09:43:23.676Z,3.20
2019-03-13T09:46:16.764Z,3.00
2019-03-13T09:49:02.922Z,3.00
2019-03-13T09:51:40.194Z,3.00
2019-03-13T09:54:33.797Z,3.00
2019-03-13T09:57:30.029Z,2.70
2019-03-13T10:00:10.646Z,2.75
2019-03-13T10:02:49.625Z,3.20
2019-03-13T10:05:36.153Z,3.10
2019-03-13T10:08:22.166Z,3.00
2019-03-13T10:11:12.599Z,3.27
2019-03-13T10:14:14.921Z,3.30
2019-03-13T10:17:10.635Z,2.95
2019-03-13T10:19:54.020Z,3.05
2019-03-13T10:22:29.180Z,3.40
2019-03-13T10:25:19.254Z,2.75
2019-03-13T10:28:09.022Z,3.50
2019-03-13T10:31:06.703Z,2.90
2019-03-13T10:33:44.055Z,3.30
2019-03-13T10:36:22.552Z,3.47
2019-03-13T10:39:09.548Z,3.37
2019-03-13T10:42:14.896Z,2.90
2019-03-13T10:44:54.710Z,3.10
2019-03-13T10:47:44.897Z,3.35
2019-03-13T10:50:18.587Z,3.95
2019-03-13T10:53:09.390Z,3.58
2019-03-13T10:55:59.819Z,3.27
2019-03-13T10:58:46.800Z,3.30
2019-03-13T11:01:22.796Z,3.15
2019-03-13T11:04:10.105Z,3.30
2019-03-13T11:06:59.909Z,3.40
2019-03-13T11:09:45.776Z,3.12
2019-03-13T11:12:26.756Z,3.50
2019-03-13T11:15:32.301Z,2.83
2019-03-13T11:18:09.365Z,3.30
2019-03-13T11:21:14.794Z,3.40
2019-03-13T11:24:01.795Z,3.50
2019-03-13T11:26:52.553Z,2.85
2019-03-13T11:29:29.850Z,2.60
2019-03-13T11:32:29.189Z,2.80
2019-03-13T11:35:15.053Z,2.95
2019-03-13T11:38:07.870Z,2.57
2019-03-13T11:40:50.573Z,2.80
2019-03-13T11:43:25.748Z,2.60
2019-03-13T11:46:11.638Z,2.95
2019-03-13T11:48:50.855Z,3.00
2019-03-13T11:51:37.898Z,3.22
2019-03-13T11:54:28.092Z,2.70
2019-03-13T11:57:15.048Z,2.60
2019-03-13T11:59:51.429Z,3.20
2019-03-13T12:02:37.386Z,2.90
2019-03-13T12:05:30.922Z,3.22
2019-03-13T12:08:08.365Z,2.40
2019-03-13T12:10:45.282Z,3.40
2019-03-13T12:13:38.641Z,3.07
2019-03-13T12:16:24.280Z,3.25
2019-03-13T12:19:01.946Z,2.33
2019-03-13T12:21:52.225Z,2.40
2019-03-13T12:24:37.837Z,2.80
2019-03-13T12:27:17.889Z,3.10
2019-03-13T12:30:10.917Z,2.50
2019-03-13T12:32:56.981Z,2.70
2019-03-13T12:35:42.206Z,2.37
2019-03-13T12:38:35.657Z,2.70
2019-03-13T12:41:22.666Z,2.65
2019-03-13T12:44:08.567Z,2.70
2019-03-13T12:46:58.961Z,2.40
2019-03-13T12:49:36.928Z,2.70
2019-03-13T12:52:26.900Z,3.02
2019-03-13T12:55:19.269Z,2.55
2019-03-13T12:58:09.847Z,2.70
2019-03-13T13:00:51.690Z,2.60
2019-03-13T13:03:48.018Z,2.40
2019-03-13T13:06:28.278Z,2.60
2019-03-13T13:09:14.072Z,2.65
2019-03-13T13:12:07.633Z,2.98
2019-03-13T13:15:10.128Z,2.87
2019-03-13T13:17:57.740Z,2.90
2019-03-13T13:20:25.705Z,2.20
2019-03-13T13:22:53.998Z,2.70
2019-03-13T13:25:22.018Z,2.80
2019-03-13T13:27:51.025Z,2.40
2019-03-13T13:30:19.234Z,2.70
2019-03-13T13:32:47.611Z,2.42
2019-03-13T13:35:15.589Z,1.93
2019-03-13T13:37:43.537Z,2.13
2019-03-13T13:40:12.031Z,2.15
2019-03-13T13:42:40.307Z,2.33
2019-03-13T13:45:08.984Z,2.10
2019-03-13T13:47:36.994Z,2.10
2019-03-13T13:50:07.172Z,2.00
2019-03-13T13:52:35.154Z,2.10
2019-03-13T13:55:03.142Z,2.20
2019-03-13T13:57:31.154Z,2.12
2019-03-13T13:59:59.541Z,2.02
2019-03-13T14:02:27.846Z,2.40
2019-03-13T14:04:55.802Z,2.40
2019-03-13T14:07:23.802Z,2.10
2019-03-13T14:09:51.701Z,2.10
2019-03-13T14:12:20.314Z,2.30
2019-03-13T14:14:48.282Z,2.05
2019-03-13T14:17:16.266Z,1.87
2019-03-13T14:19:44.853Z,1.45
2019-03-13T14:22:13.465Z,1.65
2019-03-13T14:24:41.428Z,1.70
2019-03-13T14:27:14.658Z,1.60
2019-03-13T14:29:39.681Z,1.60
2019-03-13T14:32:07.705Z,1.42
2019-03-13T14:34:37.348Z,1.60
2019-03-13T14:37:05.656Z,3.03
2019-03-13T14:39:34.265Z,1.62
2019-03-13T14:42:02.340Z,1.70
2019-03-13T14:44:30.951Z,1.60
2019-03-13T14:46:59.613Z,1.70
2019-03-13T14:49:27.873Z,1.73
2019-03-13T14:51:56.254Z,1.60
2019-03-13T14:54:24.462Z,1.90
2019-03-13T14:56:52.417Z,1.50
2019-03-13T14:59:20.683Z,2.10
2019-03-13T15:01:48.661Z,2.17
2019-03-13T15:04:16.662Z,1.77
2019-03-13T15:06:44.642Z,1.85
2019-03-13T15:09:12.865Z,1.65
2019-03-13T15:11:40.849Z,1.80
2019-03-13T15:14:10.013Z,1.80
2019-03-13T15:16:37.944Z,1.80
2019-03-13T15:19:06.194Z,1.65
2019-03-13T15:21:34.442Z,1.80
2019-03-13T15:24:02.397Z,1.80
2019-03-13T15:26:30.409Z,2.00
2019-03-13T15:28:58.360Z,2.00
2019-03-13T15:31:26.617Z,1.85
2019-03-13T15:33:54.957Z,2.00
2019-03-13T15:36:23.295Z,1.80
2019-03-13T15:38:51.240Z,1.80
2019-03-13T15:41:19.236Z,6.00
2019-03-13T15:43:47.185Z,1.77
2019-03-13T15:46:15.579Z,2.22
2019-03-13T15:48:43.825Z,1.90
2019-03-13T15:51:11.803Z,1.85
2019-03-13T15:53:39.805Z,1.70
2019-03-13T15:56:07.979Z,1.70
2019-03-13T15:58:36.266Z,2.30
2019-03-13T16:01:05.262Z,2.10
2019-03-13T16:03:33.216Z,1.70
2019-03-13T16:06:03.010Z,1.70
2019-03-13T16:08:30.977Z,1.70
2019-03-13T16:10:59.485Z,2.05
2019-03-13T16:13:27.452Z,1.60
2019-03-13T16:15:55.417Z,1.65
2019-03-13T16:18:23.948Z,1.70
2019-03-13T16:20:52.180Z,3.55
2019-03-13T16:23:20.177Z,1.92
2019-03-13T16:25:48.142Z,2.02
2019-03-13T16:28:16.113Z,1.62
2019-03-13T16:30:44.471Z,1.70
2019-03-13T16:33:12.744Z,1.72
2019-03-13T16:35:40.743Z,1.80
2019-03-13T16:38:08.888Z,1.80
2019-03-13T16:40:37.165Z,1.80
2019-03-13T16:43:05.653Z,1.80
2019-03-13T16:45:33.594Z,1.50
2019-03-13T16:48:01.915Z,1.80
2019-03-13T16:50:29.929Z,1.62
2019-03-13T16:52:57.901Z,1.65
2019-03-13T16:55:25.868Z,2.25
2019-03-13T16:57:53.820Z,1.60
2019-03-13T17:00:23.026Z,2.00
2019-03-13T17:02:51.503Z,1.90
2019-03-13T17:05:19.569Z,1.45
2019-03-13T17:07:49.782Z,1.37
2019-03-13T17:10:18.255Z,1.80
2019-03-13T17:12:46.286Z,1.80
2019-03-13T17:15:15.697Z,1.42
2019-03-13T17:17:43.952Z,1.40
2019-03-13T17:20:13.296Z,1.50
2019-03-13T17:22:43.303Z,1.75
2019-03-13T17:25:11.476Z,1.10
2019-03-13T17:27:40.158Z,1.20
2019-03-13T17:30:09.387Z,1.20
2019-03-13T17:32:37.730Z,1.30
2019-03-13T17:35:06.028Z,1.12
2019-03-13T17:37:34.826Z,1.22
2019-03-13T17:40:03.026Z,1.60
2019-03-13T17:42:31.325Z,1.30
2019-03-13T17:44:59.940Z,1.70
2019-03-13T17:47:28.517Z,1.27
2019-03-13T17:49:56.673Z,1.47
2019-03-13T17:52:24.828Z,1.60
2019-03-13T17:54:53.439Z,1.50
2019-03-13T17:57:21.439Z,1.70
2019-03-13T17:59:49.824Z,1.50
2019-03-13T18:02:19.335Z,1.90
2019-03-13T18:04:47.819Z,1.60
2019-03-13T18:07:16.206Z,1.60
2019-03-13T18:09:44.559Z,1.50
2019-03-13T18:12:12.668Z,1.70
2019-03-13T18:14:40.710Z,1.50
2019-03-13T18:17:08.719Z,1.72
2019-03-13T18:19:37.475Z,1.70
2019-03-13T18:22:05.589Z,2.20
2019-03-13T18:24:33.680Z,2.35
2019-03-13T18:27:01.748Z,2.10
2019-03-13T18:29:30.171Z,2.30
2019-03-13T18:31:58.568Z,2.20
2019-03-13T18:34:27.246Z,2.25
2019-03-13T18:36:55.392Z,2.20
2019-03-13T18:39:23.433Z,2.85
2019-03-13T18:41:52.381Z,3.85
2019-03-13T18:44:20.404Z,2.50
2019-03-13T18:46:48.504Z,2.20
2019-03-13T18:49:16.600Z,2.10
2019-03-13T18:51:44.969Z,2.33
2019-03-13T18:54:13.657Z,2.62
2019-03-13T18:56:41.710Z,2.30
2019-03-13T18:59:10.436Z,2.70
2019-03-13T19:01:38.497Z,2.50
2019-03-13T19:04:06.873Z,2.58
2019-03-13T19:06:35.251Z,2.80
2019-03-13T19:09:04.432Z,2.83
2019-03-13T19:11:32.488Z,2.98
2019-03-13T19:14:00.896Z,2.90
2019-03-13T19:16:29.707Z,2.90
2019-03-13T19:18:58.448Z,2.98
2019-03-13T19:21:26.523Z,2.90
2019-03-13T19:23:55.231Z,3.40
2019-03-13T19:26:23.217Z,3.57
2019-03-13T19:28:51.456Z,3.50
2019-03-13T19:31:19.410Z,3.50
2019-03-13T19:33:47.422Z,3.60
2019-03-13T19:36:15.720Z,3.83
2019-03-13T19:38:44.264Z,3.40
2019-03-13T19:41:12.630Z,3.40
2019-03-13T19:43:40.921Z,3.47
2019-03-13T19:46:09.202Z,3.47
2019-03-13T19:48:37.480Z,3.60
2019-03-13T19:51:05.452Z,5.90
2019-03-13T19:53:33.441Z,4.00
2019-03-13T19:56:03.199Z,3.72
2019-03-13T19:58:31.216Z,3.98
2019-03-13T20:00:59.186Z,3.90
2019-03-13T20:03:27.505Z,4.28
2019-03-13T20:05:55.837Z,3.80
2019-03-13T20:08:23.773Z,3.80
2019-03-13T20:10:51.766Z,3.72
2019-03-13T20:13:21.819Z,4.05
2019-03-13T20:15:50.906Z,4.30
2019-03-13T20:18:18.842Z,4.33
2019-03-13T20:20:47.133Z,6.05
2019-03-13T20:23:15.711Z,4.80
2019-03-13T20:25:43.668Z,4.70
2019-03-13T20:28:11.945Z,5.00
2019-03-13T20:30:40.242Z,4.40
2019-03-13T20:33:08.210Z,5.15
2019-03-13T20:35:37.017Z,3.80
2019-03-13T20:38:05.301Z,3.87
2019-03-13T20:40:33.295Z,3.40
2019-03-13T20:43:02.406Z,4.00
2019-03-13T20:45:31.134Z,3.30
2019-03-13T20:47:59.349Z,2.80
2019-03-13T20:50:36.635Z,3.50
2019-03-13T20:52:57.478Z,3.12
2019-03-13T20:55:25.554Z,2.80
2019-03-13T20:57:54.155Z,3.10
2019-03-13T21:00:23.756Z,3.00
2019-03-13T21:02:52.143Z,3.00
2019-03-13T21:05:20.094Z,2.50
2019-03-13T21:07:48.365Z,2.00
2019-03-13T21:10:16.556Z,2.05
2019-03-13T21:12:44.836Z,2.20
2019-03-13T21:15:13.989Z,2.10
2019-03-13T21:17:41.993Z,2.10
2019-03-13T21:20:10.599Z,2.73
2019-03-13T21:22:38.895Z,1.90
2019-03-13T21:25:07.461Z,1.80
2019-03-13T21:27:36.039Z,1.65
2019-03-13T21:30:04.540Z,2.05
2019-03-13T21:32:32.785Z,1.80
2019-03-13T21:35:01.032Z,1.70
2019-03-13T21:37:28.985Z,1.85
2019-03-13T21:39:57.317Z,1.87
2019-03-13T21:42:25.338Z,1.62
2019-03-13T21:44:53.321Z,1.70
2019-03-13T21:47:21.322Z,1.92
2019-03-13T21:49:49.282Z,2.40
2019-03-13T21:52:17.243Z,1.90
2019-03-13T21:54:45.538Z,1.75
2019-03-13T21:57:13.496Z,1.60
2019-03-13T21:59:41.457Z,1.50
2019-03-13T22:02:09.388Z,1.35
2019-03-13T22:04:37.633Z,1.65
2019-03-13T22:07:06.209Z,2.27
2019-03-13T22:09:34.485Z,1.12
2019-03-13T22:12:02.432Z,1.35
2019-03-13T22:14:30.367Z,3.27
2019-03-13T22:16:58.604Z,1.70
2019-03-13T22:19:26.874Z,1.80
2019-03-13T22:21:55.157Z,1.98
2019-03-13T22:24:23.472Z,2.12
2019-03-13T22:26:52.333Z,3.20
2019-03-13T22:29:20.317Z,2.33
2019-03-13T22:31:48.496Z,2.25
2019-03-13T22:34:16.762Z,2.60
2019-03-13T22:36:46.667Z,2.40
2019-03-13T22:39:14.602Z,2.13
2019-03-13T22:41:43.036Z,2.73
2019-03-13T22:44:11.029Z,2.10
2019-03-13T22:46:39.666Z,1.82
2019-03-13T22:49:07.909Z,1.90
2019-03-13T22:51:36.161Z,2.12
2019-03-13T22:54:04.448Z,2.20
2019-03-13T22:56:32.810Z,1.90
2019-03-13T22:59:00.942Z,1.90
2019-03-13T23:01:30.364Z,1.90
2019-03-13T23:03:58.625Z,1.90
2019-03-13T23:06:44.662Z,1.70
2019-03-13T23:09:12.172Z,1.80
2019-03-13T23:11:41.033Z,1.80
2019-03-13T23:14:09.313Z,2.20
2019-03-13T23:16:39.288Z,2.15
2019-03-13T23:19:07.412Z,2.00
2019-03-13T23:21:36.533Z,1.90
2019-03-13T23:24:05.168Z,1.87
2019-03-13T23:26:34.155Z,1.90
2019-03-13T23:29:02.247Z,1.60
2019-03-13T23:31:30.885Z,1.60
2019-03-13T23:33:59.338Z,1.37
2019-03-13T23:36:27.789Z,1.72
2019-03-13T23:38:56.103Z,1.70
2019-03-13T23:41:24.165Z,1.62
2019-03-13T23:43:52.273Z,1.40
2019-03-13T23:46:20.656Z,1.50
2019-03-13T23:48:49.028Z,1.60
2019-03-13T23:51:17.057Z,1.87
2019-03-13T23:53:45.145Z,1.80
2019-03-13T23:56:13.656Z,1.62
2019-03-13T23:58:42.487Z,1.82
